Haw Branch, North Carolina
Current Conditions -  °F | °C
As of 1:35 PM on Wednesday 26 Nov 2014 (Local Time) from KTTA Reporting Station
Drizzle Drizzle  
Wind Chill: 39°   Ceiling: 1200
Heat Index: 45°   Visibility: 7mi
Dew Point: 44°   Wind: 10mph
Humidity: 98%   Direction: 300°WNW
Pressure: 29.96"   Gusts: NA
Location:  35.493°N, 79.1765°W
Report Text: KTTA 261835Z AUTO 30009KT 7SM DZ SCT006 BKN012 OVC030 07/07 A2996 RMK AO2 T00710068
Loading
Personal Weather Stations






























Interactive Weather Map New forecast layout! Learn more

10-Day Weather Forecast

Advertisements
Track Severe Weather on mobile